Time;durP1;ratioP1;P1;durP2;ratioP2;P2;SDS_P1;SDS_P2;PMS_P1;PMS_P2;Temp;Humidity;BMP_temperature;BMP_pressure;BME280_temperature;BME280_humidity;BME280_pressure;Samples;Min_cycle;Max_cycle;Signal;HPM_P1;HPM_P2
2022/01/21 00:01:08;;;;;;;4.93;1.43;;;20.00;67.50;;;;;;5097575;28;20456;-65
2022/01/21 00:03:35;;;;;;;3.00;1.33;;;20.00;67.10;;;;;;5115081;28;20473;-66
2022/01/21 00:06:06;;;;;;;8.10;1.30;;;20.00;67.30;;;;;;5114921;28;20466;-66
2022/01/21 00:08:33;;;;;;;3.70;1.10;;;20.00;67.30;;;;;;5115851;28;20473;-66
2022/01/21 00:10:59;;;;;;;3.53;1.30;;;20.00;67.20;;;;;;5115866;28;20429;-65
2022/01/21 00:13:33;;;;;;;4.63;1.23;;;20.00;67.30;;;;;;5115131;28;20478;-66
2022/01/21 00:16:01;;;;;;;9.43;1.30;;;20.00;67.30;;;;;;5095828;28;20174;-65
2022/01/21 00:18:27;;;;;;;7.20;1.47;;;20.00;67.40;;;;;;5096866;28;20904;-66
2022/01/21 00:31:49;;;;;;;2.10;1.13;;;20.00;67.30;;;;;;5115195;28;20491;-66
2022/01/21 00:34:15;;;;;;;4.80;1.00;;;19.90;67.20;;;;;;5091960;28;20413;-66
2022/01/21 00:36:41;;;;;;;1.80;1.10;;;19.70;67.30;;;;;;5096597;28;20175;-67
2022/01/21 00:39:07;;;;;;;9.20;1.50;;;19.90;67.50;;;;;;5096683;28;20235;-66
2022/01/21 00:41:38;;;;;;;2.60;1.27;;;20.00;67.70;;;;;;5096567;28;20203;-65
2022/01/21 00:44:04;;;;;;;2.47;1.40;;;19.90;67.30;;;;;;5096602;28;20211;-67
2022/01/21 00:46:30;;;;;;;1.80;1.00;;;20.20;67.80;;;;;;5114904;28;20473;-65
2022/01/21 00:48:55;;;;;;;2.30;1.20;;;19.90;67.80;;;;;;5096332;28;20417;-64
2022/01/21 00:51:21;;;;;;;2.70;1.30;;;19.90;67.40;;;;;;5114080;28;20244;-65
2022/01/21 00:53:47;;;;;;;2.33;1.43;;;19.90;68.10;;;;;;5114983;28;20639;-66
2022/01/21 00:56:13;;;;;;;2.90;1.10;;;19.90;67.70;;;;;;5100874;28;20183;-66
2022/01/21 00:58:39;;;;;;;17.43;1.60;;;19.90;67.90;;;;;;5076520;28;20638;-66
2022/01/21 01:01:05;;;;;;;4.80;1.30;;;19.90;68.10;;;;;;5094414;28;20544;-66
2022/01/21 01:03:31;;;;;;;1.80;1.07;;;19.80;68.30;;;;;;5108275;28;20241;-66
2022/01/21 01:05:56;;;;;;;4.00;1.30;;;19.80;67.80;;;;;;5114015;28;20218;-66
2022/01/21 01:08:22;;;;;;;11.20;1.20;;;19.80;67.90;;;;;;5114651;28;20834;-65
2022/01/21 01:11:13;;;;;;;2.17;1.00;;;19.80;67.80;;;;;;5095981;28;20195;-65
2022/01/21 01:21:49;;;;;;;4.53;1.33;;;19.80;67.30;;;;;;5113664;28;20463;-66
2022/01/21 01:29:43;;;;;;;4.33;1.17;;;19.80;67.20;;;;;;5114230;28;20505;-66
2022/01/21 01:32:09;;;;;;;2.77;1.00;;;19.80;67.20;;;;;;5095555;28;20901;-66
2022/01/21 01:34:35;;;;;;;9.40;1.47;;;19.70;67.10;;;;;;5095380;28;20178;-66
2022/01/21 01:37:06;;;;;;;3.43;1.10;;;19.80;66.70;;;;;;5095302;28;20466;-66
2022/01/21 01:42:56;;;;;;;1.97;1.10;;;19.70;66.70;;;;;;5113078;28;20457;-66
2022/01/21 01:50:33;;;;;;;3.00;1.10;;;19.70;65.70;;;;;;5113918;28;20978;-66
2022/01/21 01:52:59;;;;;;;1.90;1.00;;;19.80;65.70;;;;;;5095001;28;20415;-66
2022/01/21 01:55:24;;;;;;;1.47;1.10;;;19.70;65.60;;;;;;5095300;28;20533;-66
2022/01/21 01:57:50;;;;;;;7.63;1.40;;;19.70;66.50;;;;;;5095367;28;20410;-66
2022/01/21 02:00:17;;;;;;;3.30;0.90;;;19.70;65.60;;;;;;5095294;28;20209;-66
2022/01/21 02:02:42;;;;;;;1.70;1.00;;;19.70;65.40;;;;;;5094920;28;20914;-66
2022/01/21 02:05:08;;;;;;;2.30;1.13;;;19.70;65.30;;;;;;5101455;28;20499;-66
2022/01/21 02:07:34;;;;;;;2.93;1.20;;;19.70;65.50;;;;;;5094966;28;20171;-66
2022/01/21 02:10:00;;;;;;;4.13;1.40;;;19.70;65.40;;;;;;5095245;28;20780;-67
2022/01/21 02:12:26;;;;;;;1.77;1.10;;;19.70;65.20;;;;;;5094764;28;20411;-67
2022/01/21 02:14:54;;;;;;;2.90;1.13;;;19.70;65.30;;;;;;5094717;28;20181;-67
2022/01/21 02:22:44;;;;;;;1.30;0.90;;;19.70;64.70;;;;;;5113145;28;20807;-67
2022/01/21 02:25:19;;;;;;;3.37;1.20;;;19.70;64.70;;;;;;5078320;28;20692;-67
2022/01/21 02:27:57;;;;;;;2.97;1.30;;;19.70;64.90;;;;;;5093060;28;20394;-67
2022/01/21 02:30:24;;;;;;;3.30;1.20;;;19.70;64.60;;;;;;5074459;28;20490;-65
2022/01/21 02:32:52;;;;;;;2.97;1.30;;;19.70;64.90;;;;;;5074612;28;20455;-65
2022/01/21 02:35:20;;;;;;;2.27;1.20;;;19.70;64.70;;;;;;5092638;28;20780;-66
2022/01/21 02:37:46;;;;;;;2.93;1.17;;;19.70;64.90;;;;;;5095174;28;20447;-66
2022/01/21 02:40:13;;;;;;;3.17;1.20;;;19.70;65.00;;;;;;5082055;28;20448;-65
2022/01/21 02:42:39;;;;;;;26.70;1.60;;;19.70;64.80;;;;;;5073922;28;20415;-66
2022/01/21 02:45:07;;;;;;;2.00;1.20;;;19.70;64.50;;;;;;5090737;28;20451;-66
2022/01/21 02:47:33;;;;;;;3.10;1.17;;;19.70;64.60;;;;;;5094902;28;21010;-66
2022/01/21 02:49:59;;;;;;;3.03;1.20;;;19.70;64.50;;;;;;5094390;28;20431;-66
2022/01/21 02:52:28;;;;;;;2.57;1.20;;;19.70;64.30;;;;;;5112876;28;20161;-66
2022/01/21 02:54:55;;;;;;;1.87;1.00;;;19.70;64.40;;;;;;5112742;28;20415;-66
2022/01/21 02:57:20;;;;;;;3.47;1.00;;;19.70;64.40;;;;;;5094803;28;20415;-67
2022/01/21 02:59:46;;;;;;;2.47;1.10;;;19.70;63.90;;;;;;5094173;28;20436;-66
2022/01/21 03:02:14;;;;;;;2.23;1.00;;;19.70;64.10;;;;;;5112526;28;20188;-65
2022/01/21 03:05:00;;;;;;;1.80;1.07;;;19.60;64.00;;;;;;5094136;28;20179;-66
2022/01/21 03:07:26;;;;;;;4.60;1.40;;;19.60;63.70;;;;;;5081274;28;20431;-65
2022/01/21 03:09:52;;;;;;;2.83;1.30;;;19.60;63.70;;;;;;5094497;28;20446;-66
2022/01/21 03:12:18;;;;;;;3.60;1.10;;;19.60;63.60;;;;;;5093926;28;20173;-67
2022/01/21 03:14:43;;;;;;;3.80;1.20;;;19.70;64.50;;;;;;5094023;28;20185;-66
2022/01/21 03:17:09;;;;;;;5.07;1.53;;;19.60;63.80;;;;;;5093857;28;20305;-66
2022/01/21 03:19:35;;;;;;;2.27;1.20;;;19.60;63.60;;;;;;5114655;28;20573;-66
2022/01/21 03:22:02;;;;;;;3.97;1.30;;;19.60;63.40;;;;;;5098036;28;20686;-66
2022/01/21 03:24:28;;;;;;;1.63;1.13;;;19.60;63.50;;;;;;5098109;28;20268;-66
2022/01/21 03:26:53;;;;;;;1.87;1.00;;;19.60;63.00;;;;;;5098187;28;20502;-66
2022/01/21 03:29:19;;;;;;;2.87;1.20;;;19.60;63.30;;;;;;5097551;28;20171;-66
2022/01/21 03:31:45;;;;;;;3.03;1.10;;;19.60;63.10;;;;;;5097836;28;20175;-66
2022/01/21 03:34:11;;;;;;;2.63;1.00;;;19.60;63.10;;;;;;5097440;28;20174;-66
2022/01/21 03:36:38;;;;;;;3.43;1.40;;;19.60;63.20;;;;;;5098144;28;20509;-65
2022/01/21 03:39:04;;;;;;;2.27;1.00;;;19.60;63.10;;;;;;5097815;28;20172;-65
2022/01/21 03:41:30;;;;;;;2.10;1.10;;;19.60;63.00;;;;;;5097270;28;20476;-65
2022/01/21 03:43:56;;;;;;;3.30;1.30;;;19.50;63.00;;;;;;5097200;28;20531;-65
2022/01/21 03:46:22;;;;;;;1.87;0.87;;;19.50;62.70;;;;;;5098094;28;20531;-65
2022/01/21 03:48:49;;;;;;;2.70;1.13;;;19.50;63.60;;;;;;5116002;28;20423;-66
2022/01/21 03:51:17;;;;;;;2.23;1.10;;;19.50;63.10;;;;;;5097042;28;20348;-66
2022/01/21 03:53:44;;;;;;;2.03;1.20;;;19.50;63.40;;;;;;5096786;28;20422;-66
2022/01/21 03:56:10;;;;;;;1.90;1.10;;;19.50;62.90;;;;;;5097829;28;20501;-66
2022/01/21 03:58:35;;;;;;;4.93;1.03;;;19.50;62.90;;;;;;5097462;28;20471;-66
2022/01/21 04:01:01;;;;;;;1.60;0.90;;;19.50;63.00;;;;;;5115839;28;20557;-66
2022/01/21 04:03:27;;;;;;;2.33;1.37;;;19.50;63.00;;;;;;5096629;28;20176;-66
2022/01/21 04:05:53;;;;;;;5.33;1.37;;;19.50;62.90;;;;;;5084977;28;20177;-66
2022/01/21 04:08:19;;;;;;;2.53;1.13;;;19.50;63.40;;;;;;5097409;28;20480;-66
2022/01/21 04:10:48;;;;;;;3.80;1.30;;;19.50;62.90;;;;;;5097172;28;20445;-65
2022/01/21 04:13:16;;;;;;;3.37;0.90;;;19.50;63.10;;;;;;5097112;28;20406;-65
2022/01/21 04:15:43;;;;;;;2.57;1.40;;;19.50;63.40;;;;;;5094822;28;20426;-66
2022/01/21 04:18:10;;;;;;;3.13;1.47;;;19.50;63.40;;;;;;5093823;28;20418;-66
2022/01/21 04:20:36;;;;;;;2.20;1.10;;;19.50;63.00;;;;;;5096521;28;20464;-66
2022/01/21 04:23:02;;;;;;;1.90;0.97;;;19.50;63.10;;;;;;5096810;28;20422;-66
2022/01/21 04:25:28;;;;;;;2.60;1.03;;;19.50;63.30;;;;;;5096485;28;20423;-66
2022/01/21 04:27:54;;;;;;;1.90;1.27;;;19.50;63.60;;;;;;5115285;28;20422;-65
2022/01/21 04:30:19;;;;;;;3.13;1.10;;;19.50;63.40;;;;;;5095779;28;20249;-65
2022/01/21 04:32:45;;;;;;;4.73;1.50;;;19.50;63.50;;;;;;5114753;28;20539;-65
2022/01/21 04:35:11;;;;;;;1.67;1.00;;;19.50;63.00;;;;;;5096205;28;20183;-65
2022/01/21 04:37:43;;;;;;;2.00;1.30;;;19.50;63.50;;;;;;5095974;28;20569;-65
2022/01/21 04:40:13;;;;;;;2.77;1.33;;;19.60;63.40;;;;;;5096103;28;20465;-66
2022/01/21 04:48:07;;;;;;;3.00;1.07;;;19.50;63.60;;;;;;5114851;28;20423;-65
2022/01/21 04:50:41;;;;;;;2.90;1.23;;;19.50;63.70;;;;;;5089230;28;20438;-65
2022/01/21 04:53:07;;;;;;;1.40;0.97;;;19.50;63.90;;;;;;5096441;28;20448;-65
2022/01/21 04:55:35;;;;;;;2.23;1.30;;;19.50;63.90;;;;;;5114308;28;20441;-65
2022/01/21 04:58:01;;;;;;;2.80;1.13;;;19.50;64.30;;;;;;5113751;28;20942;-65
2022/01/21 05:00:28;;;;;;;2.43;1.27;;;19.50;63.80;;;;;;5112074;27;20468;-65
2022/01/21 05:02:53;;;;;;;2.60;1.00;;;19.50;64.40;;;;;;5095099;28;20415;-65
2022/01/21 05:05:19;;;;;;;4.20;1.17;;;19.50;64.40;;;;;;5095889;28;20559;-66
2022/01/21 05:07:45;;;;;;;4.47;1.30;;;19.50;64.40;;;;;;5095399;28;20168;-66
2022/01/21 05:10:11;;;;;;;5.43;1.40;;;19.50;64.20;;;;;;5095510;28;20198;-66
2022/01/21 05:12:37;;;;;;;2.20;1.07;;;19.50;64.20;;;;;;5095370;28;20952;-66
2022/01/21 05:17:59;;;;;;;3.40;1.50;;;19.50;64.50;;;;;;5104409;28;20417;-67
2022/01/21 05:20:24;;;;;;;1.47;1.00;;;19.50;64.40;;;;;;5093218;28;20479;-67
2022/01/21 05:22:50;;;;;;;2.63;1.10;;;19.50;64.90;;;;;;5095410;28;20186;-67
2022/01/21 05:25:19;;;;;;;1.80;1.10;;;19.50;65.00;;;;;;5094683;28;20176;-66
2022/01/21 05:27:47;;;;;;;2.27;1.23;;;19.50;64.70;;;;;;5095850;28;20262;-66
2022/01/21 05:30:15;;;;;;;4.20;1.47;;;19.50;64.80;;;;;;5095152;28;20451;-66
2022/01/21 05:32:40;;;;;;;2.30;1.00;;;19.50;64.90;;;;;;5094288;28;20493;-66
2022/01/21 05:35:07;;;;;;;2.83;1.20;;;19.50;64.70;;;;;;5095130;28;20964;-66
2022/01/21 05:37:34;;;;;;;3.07;1.10;;;19.60;64.50;;;;;;5094915;28;20239;-66
2022/01/21 05:40:00;;;;;;;3.33;1.50;;;19.50;64.80;;;;;;5094810;28;20809;-66
2022/01/21 05:42:26;;;;;;;7.47;1.83;;;19.60;65.00;;;;;;5093803;28;20447;-66
2022/01/21 05:47:17;;;;;;;9.40;3.30;;;19.60;64.80;;;;;;5113658;28;20782;-66
2022/01/21 05:49:43;;;;;;;6.50;3.20;;;19.60;65.60;;;;;;5095307;28;20720;-66
2022/01/21 05:52:16;;;;;;;9.87;6.27;;;19.70;65.90;;;;;;5094603;28;20645;-65
2022/01/21 05:54:44;;;;;;;12.00;6.30;;;19.70;64.70;;;;;;5094829;28;20171;-65
2022/01/21 05:57:12;;;;;;;11.80;6.60;;;19.70;64.90;;;;;;5094724;28;20934;-65
2022/01/21 05:59:38;;;;;;;11.10;6.10;;;19.60;64.50;;;;;;5094541;28;20936;-65
2022/01/21 06:02:05;;;;;;;14.67;6.40;;;19.70;65.30;;;;;;5093596;28;20973;-65
2022/01/21 06:04:32;;;;;;;11.50;5.90;;;19.70;65.00;;;;;;5093536;28;20421;-65
2022/01/21 06:07:00;;;;;;;13.80;6.07;;;19.60;64.80;;;;;;5094021;28;20485;-65
2022/01/21 06:09:25;;;;;;;12.23;6.23;;;19.60;64.70;;;;;;5094242;28;20405;-66
2022/01/21 06:11:51;;;;;;;13.10;5.33;;;19.60;65.20;;;;;;5094840;28;20424;-65
2022/01/21 06:14:17;;;;;;;10.90;5.07;;;;;;;;;;5094760;28;20177;-65
2022/01/21 06:16:43;;;;;;;7.13;3.87;;;19.20;64.10;;;;;;5094162;28;20504;-65
2022/01/21 06:19:09;;;;;;;10.50;4.57;;;19.10;61.50;;;;;;5094786;28;20987;-65
2022/01/21 06:21:34;;;;;;;7.90;4.73;;;19.20;61.30;;;;;;5093935;28;20298;-65
2022/01/21 06:24:00;;;;;;;8.53;4.43;;;19.40;61.70;;;;;;5094308;28;20195;-66
2022/01/21 06:26:27;;;;;;;10.00;4.23;;;19.50;61.80;;;;;;5094457;28;20175;-66
2022/01/21 06:28:52;;;;;;;9.00;4.13;;;19.50;61.60;;;;;;5094684;28;20170;-65
2022/01/21 06:31:18;;;;;;;8.87;4.43;;;19.50;61.90;;;;;;5093609;28;20430;-65
2022/01/21 06:33:44;;;;;;;11.83;4.60;;;19.50;61.80;;;;;;5094679;28;20184;-66
2022/01/21 06:36:09;;;;;;;13.67;4.53;;;19.50;61.80;;;;;;5096255;28;20904;-65
2022/01/21 06:38:35;;;;;;;13.67;4.10;;;19.60;61.70;;;;;;5088926;28;20179;-66
2022/01/21 06:41:02;;;;;;;8.40;4.10;;;19.60;61.80;;;;;;5093470;28;20263;-66
2022/01/21 06:43:27;;;;;;;7.30;3.93;;;19.60;61.70;;;;;;5094781;28;20786;-64
2022/01/21 06:45:53;;;;;;;10.03;4.30;;;19.60;61.50;;;;;;5094362;28;20406;-64
2022/01/21 06:48:19;;;;;;;11.07;4.47;;;19.60;61.40;;;;;;5094948;28;20171;-65
2022/01/21 06:50:45;;;;;;;14.83;4.70;;;19.60;61.20;;;;;;5094664;28;20196;-64
2022/01/21 06:53:10;;;;;;;8.37;3.93;;;19.60;61.40;;;;;;5096153;28;20192;-65
2022/01/21 06:55:37;;;;;;;10.77;4.20;;;19.60;61.20;;;;;;5099140;28;20550;-65
2022/01/21 06:58:04;;;;;;;6.93;3.50;;;19.60;61.60;;;;;;5098629;28;20182;-65
2022/01/21 07:00:29;;;;;;;5.87;3.40;;;19.60;62.20;;;;;;5098625;28;20477;-64
2022/01/21 07:02:55;;;;;;;9.40;4.17;;;19.60;61.20;;;;;;5098563;28;20493;-64
2022/01/21 07:05:22;;;;;;;15.90;4.63;;;19.60;61.40;;;;;;5098860;28;20512;-64
2022/01/21 07:07:49;;;;;;;7.87;3.70;;;19.60;61.10;;;;;;5098595;28;20178;-64
2022/01/21 07:10:15;;;;;;;7.53;3.93;;;19.60;61.40;;;;;;5098330;28;20766;-65
2022/01/21 07:12:43;;;;;;;8.83;4.30;;;19.60;61.40;;;;;;5098314;28;20418;-64
2022/01/21 07:15:10;;;;;;;6.50;3.23;;;19.60;61.40;;;;;;5098543;28;20447;-65
2022/01/21 07:17:36;;;;;;;7.73;3.80;;;19.60;61.30;;;;;;5098542;28;20419;-65
2022/01/21 07:20:03;;;;;;;5.73;3.37;;;19.60;61.60;;;;;;5098582;28;20531;-65
2022/01/21 07:22:31;;;;;;;9.03;3.53;;;19.60;61.40;;;;;;5097937;28;20168;-65
2022/01/21 07:24:57;;;;;;;11.53;4.13;;;19.50;61.40;;;;;;5098479;28;20407;-65
2022/01/21 07:27:22;;;;;;;5.40;3.03;;;19.50;61.40;;;;;;5098663;28;20416;-65
2022/01/21 07:29:48;;;;;;;7.93;3.13;;;19.50;61.40;;;;;;5098386;28;20426;-64
2022/01/21 07:32:14;;;;;;;9.30;3.53;;;19.50;61.60;;;;;;5097882;28;20204;-64
2022/01/21 07:34:40;;;;;;;3.80;2.77;;;19.50;61.40;;;;;;5097969;28;20175;-64
2022/01/21 07:37:05;;;;;;;5.00;2.70;;;19.50;61.80;;;;;;5098229;28;20211;-64
2022/01/21 07:39:31;;;;;;;7.40;2.93;;;19.50;61.70;;;;;;5097998;28;20420;-65
2022/01/21 07:41:57;;;;;;;5.30;2.90;;;19.50;61.50;;;;;;5097801;28;20201;-65
2022/01/21 07:44:23;;;;;;;5.93;3.03;;;19.50;61.50;;;;;;5098221;28;20163;-65
2022/01/21 07:46:49;;;;;;;5.07;2.67;;;19.50;61.50;;;;;;5097702;28;20258;-65
2022/01/21 07:49:16;;;;;;;7.10;2.73;;;19.50;61.70;;;;;;5097994;28;20411;-65
2022/01/21 07:51:43;;;;;;;4.60;2.83;;;19.40;61.80;;;;;;5097703;28;20917;-65
2022/01/21 07:54:10;;;;;;;6.00;2.53;;;19.40;61.80;;;;;;5097832;28;20423;-65
2022/01/21 07:56:35;;;;;;;5.10;2.80;;;19.40;61.50;;;;;;5098043;28;20478;-65
2022/01/21 07:59:12;;;;;;;5.17;2.60;;;19.40;61.50;;;;;;5097482;28;20417;-65
2022/01/21 08:01:39;;;;;;;5.57;2.60;;;19.40;61.70;;;;;;5097321;28;20206;-65
2022/01/21 08:04:05;;;;;;;2.33;2.10;;;19.40;61.60;;;;;;5097319;28;20497;-65
2022/01/21 08:06:31;;;;;;;4.10;2.63;;;19.40;61.80;;;;;;5097625;28;20439;-65
2022/01/21 08:08:57;;;;;;;4.73;1.90;;;19.40;61.80;;;;;;5097647;28;20400;-65
2022/01/21 08:11:23;;;;;;;7.80;2.90;;;19.30;61.60;;;;;;5096926;28;20435;-65
2022/01/21 08:13:49;;;;;;;3.80;2.17;;;19.30;61.90;;;;;;5097849;28;20423;-65
2022/01/21 08:16:15;;;;;;;4.23;2.57;;;19.40;61.60;;;;;;5097369;28;20173;-64
2022/01/21 08:18:41;;;;;;;6.20;2.70;;;19.40;61.90;;;;;;5097431;28;20815;-65
2022/01/21 08:21:07;;;;;;;3.37;2.43;;;19.40;61.90;;;;;;5097420;28;20546;-65
2022/01/21 08:23:32;;;;;;;6.50;2.30;;;19.40;62.00;;;;;;5096714;28;20759;-64
2022/01/21 08:25:58;;;;;;;6.50;2.60;;;19.40;63.10;;;;;;5097554;28;20197;-64
2022/01/21 08:28:24;;;;;;;5.47;2.20;;;19.40;62.30;;;;;;5097486;28;20255;-64
2022/01/21 08:30:49;;;;;;;3.40;2.07;;;19.40;62.40;;;;;;5097114;28;20195;-64
2022/01/21 08:33:15;;;;;;;4.33;2.40;;;19.40;62.30;;;;;;5096716;28;20188;-64
2022/01/21 08:35:41;;;;;;;11.90;2.40;;;19.40;62.30;;;;;;5096760;28;20219;-65
2022/01/21 08:38:07;;;;;;;3.53;2.03;;;19.40;62.00;;;;;;5096901;28;20262;-64
2022/01/21 08:40:34;;;;;;;4.97;2.47;;;19.40;62.30;;;;;;5096619;28;20610;-64
2022/01/21 08:42:59;;;;;;;3.80;2.33;;;19.40;62.30;;;;;;5096599;28;20499;-63
2022/01/21 08:45:26;;;;;;;4.07;2.10;;;19.40;62.10;;;;;;5096798;28;20972;-64
2022/01/21 08:47:52;;;;;;;4.87;1.93;;;19.40;61.90;;;;;;5096406;28;20167;-64
2022/01/21 08:50:20;;;;;;;4.97;2.10;;;19.40;61.80;;;;;;5096587;28;20429;-65
2022/01/21 08:52:47;;;;;;;4.17;1.97;;;19.50;62.20;;;;;;5096353;28;20408;-64
2022/01/21 08:55:18;;;;;;;3.30;1.87;;;19.50;62.20;;;;;;5096895;28;20423;-64
2022/01/21 08:57:46;;;;;;;7.43;2.17;;;19.50;62.40;;;;;;5096829;28;20416;-64
2022/01/21 09:00:21;;;;;;;4.40;1.90;;;19.50;63.10;;;;;;5095993;28;20433;-64
2022/01/21 09:02:48;;;;;;;4.93;2.00;;;19.60;63.30;;;;;;5114707;28;20393;-64
2022/01/21 09:05:14;;;;;;;8.77;3.20;;;19.60;62.50;;;;;;5096697;28;20409;-64
2022/01/21 09:07:40;;;;;;;3.83;1.50;;;19.60;62.60;;;;;;5114767;28;20448;-64
2022/01/21 09:10:08;;;;;;;5.47;2.13;;;19.70;62.40;;;;;;5096381;28;20428;-64
2022/01/21 09:12:34;;;;;;;7.03;2.80;;;19.70;61.90;;;;;;5095776;28;20450;-64
2022/01/21 09:15:00;;;;;;;9.07;2.50;;;19.80;62.60;;;;;;5096396;28;20924;-64
2022/01/21 09:17:26;;;;;;;15.00;2.60;;;19.80;62.80;;;;;;5096437;28;20413;-64
2022/01/21 09:19:51;;;;;;;7.60;1.90;;;19.80;62.60;;;;;;5096053;28;20452;-64
2022/01/21 09:22:17;;;;;;;10.43;3.00;;;19.80;62.80;;;;;;5093513;28;20946;-65
2022/01/21 09:24:44;;;;;;;8.87;2.60;;;19.80;63.40;;;;;;5095697;28;20171;-64
2022/01/21 09:27:10;;;;;;;12.93;2.60;;;19.90;63.30;;;;;;5114313;28;20400;-65
2022/01/21 09:29:36;;;;;;;6.43;2.27;;;19.90;63.90;;;;;;5095596;28;20495;-65
2022/01/21 09:32:04;;;;;;;17.30;2.40;;;19.90;64.20;;;;;;5095684;28;20415;-67
2022/01/21 09:34:30;;;;;;;10.53;2.50;;;20.00;63.60;;;;;;5095918;28;20171;-65
2022/01/21 09:36:59;;;;;;;15.87;2.60;;;20.00;64.60;;;;;;5095387;28;20459;-65
2022/01/21 09:39:26;;;;;;;18.07;2.30;;;20.10;64.20;;;;;;5095647;28;20416;-65
2022/01/21 09:41:54;;;;;;;6.20;1.77;;;20.10;64.30;;;;;;5095221;28;20519;-66
2022/01/21 09:44:22;;;;;;;3.37;1.73;;;20.10;64.00;;;;;;5095459;28;20435;-65
2022/01/21 09:46:50;;;;;;;6.20;1.97;;;20.10;63.60;;;;;;5095801;28;20906;-65
2022/01/21 09:51:57;;;;;;;4.77;1.97;;;20.00;63.30;;;;;;5113213;28;20410;-65
2022/01/21 09:54:25;;;;;;;9.63;2.10;;;20.10;63.30;;;;;;5095502;28;20757;-65
2022/01/21 09:56:56;;;;;;;5.80;1.80;;;20.00;63.40;;;;;;5095557;28;20921;-66
2022/01/21 09:59:25;;;;;;;2.93;1.70;;;20.10;63.10;;;;;;5095077;28;20413;-66
2022/01/21 10:01:53;;;;;;;6.10;1.90;;;20.00;62.00;;;;;;5094735;28;20551;-65
2022/01/21 10:04:20;;;;;;;11.50;2.17;;;19.50;60.00;;;;;;5095238;28;20411;-65
2022/01/21 10:06:47;;;;;;;8.50;2.03;;;19.20;59.10;;;;;;5095339;28;20960;-65
2022/01/21 10:09:15;;;;;;;4.20;1.80;;;19.30;47.50;;;;;;5113597;28;20734;-66
2022/01/21 10:11:47;;;;;;;4.93;2.07;;;19.20;45.60;;;;;;5094499;28;20421;-66
2022/01/21 10:14:13;;;;;;;5.37;1.53;;;19.40;45.10;;;;;;5094962;28;20420;-65
2022/01/21 10:16:42;;;;;;;4.03;1.73;;;19.60;45.20;;;;;;5095311;28;20413;-65
2022/01/21 10:19:11;;;;;;;8.60;2.23;;;19.60;45.00;;;;;;5094957;28;20432;-65
2022/01/21 10:21:39;;;;;;;3.77;1.70;;;19.70;45.10;;;;;;5094451;28;20466;-65
2022/01/21 10:24:14;;;;;;;3.63;1.50;;;19.70;45.00;;;;;;5094826;28;20562;-65
2022/01/21 10:26:49;;;;;;;4.33;1.50;;;19.70;45.20;;;;;;5094877;28;20420;-65
2022/01/21 10:29:15;;;;;;;6.73;1.73;;;19.70;45.10;;;;;;5094080;28;20400;-65
2022/01/21 10:31:52;;;;;;;6.30;1.60;;;19.70;45.20;;;;;;5094299;28;20428;-65
2022/01/21 10:34:29;;;;;;;3.53;1.80;;;19.70;45.50;;;;;;5094717;28;20193;-65
2022/01/21 10:37:06;;;;;;;6.33;1.80;;;19.70;45.30;;;;;;5094276;28;20436;-66
2022/01/21 10:39:34;;;;;;;6.90;1.30;;;19.70;45.40;;;;;;5094731;28;20903;-66
2022/01/21 10:42:01;;;;;;;5.00;1.70;;;19.70;45.20;;;;;;5094557;28;20983;-66
2022/01/21 10:44:30;;;;;;;3.30;1.67;;;19.70;45.10;;;;;;5094811;28;20401;-65
2022/01/21 10:47:02;;;;;;;4.77;1.67;;;19.70;45.30;;;;;;5094817;28;20420;-65
2022/01/21 10:49:27;;;;;;;3.90;1.30;;;19.70;45.70;;;;;;5112756;28;20915;-66
2022/01/21 10:51:55;;;;;;;3.70;1.80;;;19.70;45.70;;;;;;5094365;28;20413;-66
2022/01/21 10:54:26;;;;;;;3.20;1.90;;;19.70;45.30;;;;;;5094673;28;20171;-66
2022/01/21 10:57:14;;;;;;;2.83;1.30;;;19.70;45.50;;;;;;5094987;28;20947;-66
2022/01/21 10:59:52;;;;;;;7.87;1.77;;;19.70;45.50;;;;;;5094878;28;20432;-66
2022/01/21 11:02:32;;;;;;;4.40;1.50;;;19.80;45.40;;;;;;5094140;28;20506;-65
2022/01/21 11:05:00;;;;;;;5.53;2.03;;;19.80;45.60;;;;;;5094534;28;20405;-65
2022/01/21 11:07:45;;;;;;;3.60;1.83;;;19.90;45.50;;;;;;5094725;28;20909;-66
2022/01/21 11:13:23;;;;;;;2.17;1.57;;;19.90;45.40;;;;;;5112103;28;20474;-66
2022/01/21 11:15:57;;;;;;;4.03;1.83;;;19.90;45.10;;;;;;5094573;28;20462;-65
2022/01/21 11:18:29;;;;;;;3.20;1.50;;;19.90;45.20;;;;;;5094492;28;20413;-66
2022/01/21 11:21:09;;;;;;;5.40;1.53;;;19.90;44.90;;;;;;5094205;28;20786;-66
2022/01/21 11:23:37;;;;;;;4.60;1.90;;;20.00;45.10;;;;;;5094321;28;20420;-65
2022/01/21 11:26:09;;;;;;;2.03;1.13;;;20.10;45.20;;;;;;5094314;28;20477;-66
2022/01/21 11:28:46;;;;;;;6.50;1.67;;;20.10;45.70;;;;;;5094477;28;20417;-66
2022/01/21 11:31:13;;;;;;;5.13;1.57;;;20.10;45.10;;;;;;5094325;28;20440;-65
2022/01/21 11:33:39;;;;;;;2.17;1.30;;;20.10;45.00;;;;;;5094359;28;20558;-65
2022/01/21 11:36:05;;;;;;;2.63;1.40;;;20.10;45.00;;;;;;5094406;28;20444;-65
2022/01/21 11:38:36;;;;;;;2.63;1.60;;;20.10;44.90;;;;;;5094222;28;20171;-65
2022/01/21 11:41:05;;;;;;;3.90;1.90;;;20.20;45.10;;;;;;5096836;28;20487;-65
2022/01/21 11:43:33;;;;;;;3.53;1.13;;;20.10;45.00;;;;;;5097695;28;20440;-65
2022/01/21 11:48:53;;;;;;;3.87;1.47;;;20.10;44.90;;;;;;5116257;28;20413;-66
2022/01/21 11:51:36;;;;;;;6.80;1.80;;;20.10;45.00;;;;;;5097197;28;20429;-65
2022/01/21 11:54:05;;;;;;;2.33;1.50;;;20.10;45.30;;;;;;5098107;28;20424;-66
2022/01/21 11:56:42;;;;;;;3.17;1.60;;;20.20;45.10;;;;;;5097546;28;20887;-66
2022/01/21 11:59:30;;;;;;;1.77;1.30;;;20.10;44.80;;;;;;5097596;28;20777;-65
2022/01/21 12:01:56;;;;;;;2.63;1.30;;;20.10;45.20;;;;;;5097011;28;20452;-65
2022/01/21 12:04:31;;;;;;;3.13;1.83;;;20.10;45.40;;;;;;5097419;28;20409;-66
2022/01/21 12:07:01;;;;;;;2.67;1.57;;;20.00;45.30;;;;;;5097755;28;20473;-66
2022/01/21 12:09:55;;;;;;;2.30;1.53;;;20.10;45.60;;;;;;5097404;28;20428;-65
2022/01/21 12:12:23;;;;;;;1.70;1.10;;;20.00;45.30;;;;;;5097155;28;20432;-65
2022/01/21 12:14:54;;;;;;;3.97;1.53;;;20.00;45.50;;;;;;5097202;28;20863;-66
2022/01/21 12:17:50;;;;;;;2.70;1.40;;;20.00;45.20;;;;;;5096289;28;20455;-67
2022/01/21 12:20:16;;;;;;;2.20;1.30;;;20.00;45.50;;;;;;5096721;28;20793;-66
2022/01/21 12:22:42;;;;;;;2.60;1.67;;;20.10;46.00;;;;;;5097027;28;20413;-67
2022/01/21 12:25:10;;;;;;;2.53;1.43;;;20.00;45.90;;;;;;5115398;28;20196;-67
2022/01/21 12:27:38;;;;;;;2.60;1.77;;;20.00;45.80;;;;;;5096569;28;20175;-68
2022/01/21 12:30:33;;;;;;;4.40;1.70;;;20.00;45.80;;;;;;5096024;28;20429;-67
2022/01/21 12:33:07;;;;;;;2.20;1.50;;;20.00;46.10;;;;;;5063173;28;20771;-67
2022/01/21 12:35:34;;;;;;;2.67;1.60;;;20.10;46.10;;;;;;5113587;28;20408;-66
2022/01/21 12:39:05;;;;;;;3.70;1.40;;;20.00;46.10;;;;;;5095989;28;20417;-66
2022/01/21 12:40:58;;;;;;;3.83;1.70;;;20.00;46.00;;;;;;5114438;28;20492;-66
2022/01/21 12:43:46;;;;;;;11.20;1.70;;;20.10;46.30;;;;;;5095643;28;20417;-66
2022/01/21 12:46:27;;;;;;;11.53;1.67;;;20.00;46.10;;;;;;5120224;27;20424;-66
2022/01/21 12:48:54;;;;;;;3.33;1.43;;;20.10;46.30;;;;;;5096251;28;20421;-66
2022/01/21 12:56:51;;;;;;;3.30;1.77;;;20.10;46.40;;;;;;5114164;28;20741;-66
2022/01/21 12:59:29;;;;;;;6.27;1.90;;;20.10;46.50;;;;;;5113600;28;20464;-65
2022/01/21 13:01:56;;;;;;;4.40;2.00;;;20.00;45.70;;;;;;5095806;28;20445;-67
2022/01/21 13:05:00;;;;;;;4.43;1.93;;;20.00;46.20;;;;;;5091845;28;20458;-66
2022/01/21 13:07:53;;;;;;;6.07;2.30;;;20.10;46.30;;;;;;5095248;28;20885;-67
2022/01/21 13:10:19;;;;;;;4.50;2.30;;;20.00;46.00;;;;;;5112045;28;20790;-66
2022/01/21 13:13:12;;;;;;;5.40;2.43;;;20.10;46.50;;;;;;5094734;28;20424;-65
2022/01/21 13:15:38;;;;;;;5.00;2.17;;;20.10;46.60;;;;;;5095251;28;20195;-63
2022/01/21 13:18:23;;;;;;;5.50;2.20;;;20.00;46.40;;;;;;5095630;28;20929;-63
2022/01/21 13:20:53;;;;;;;3.63;2.37;;;20.10;46.70;;;;;;5094417;28;20290;-67
2022/01/21 13:23:58;;;;;;;4.00;2.50;;;20.00;46.60;;;;;;5112926;28;20416;-65
2022/01/21 13:26:38;;;;;;;5.27;3.20;;;20.10;46.70;;;;;;5093891;28;20474;-65
2022/01/21 13:29:06;;;;;;;6.80;3.23;;;20.10;46.80;;;;;;5094810;28;20405;-65
2022/01/21 13:31:36;;;;;;;7.37;3.40;;;20.10;47.10;;;;;;5094496;28;20987;-66
2022/01/21 13:34:11;;;;;;;8.57;4.20;;;20.20;48.10;;;;;;5094602;28;20421;-65
2022/01/21 13:36:42;;;;;;;12.00;5.00;;;20.20;48.10;;;;;;5113027;28;20413;-65
2022/01/21 13:39:11;;;;;;;7.37;4.60;;;20.30;47.50;;;;;;5094396;28;20477;-65
2022/01/21 13:42:02;;;;;;;7.67;4.37;;;20.20;47.60;;;;;;5094114;28;21030;-65
2022/01/21 13:44:28;;;;;;;6.47;4.20;;;20.20;47.20;;;;;;5094267;28;20419;-66
2022/01/21 13:46:57;;;;;;;15.40;4.40;;;20.20;47.60;;;;;;5094872;28;20420;-66
2022/01/21 13:49:24;;;;;;;8.73;4.03;;;20.20;47.40;;;;;;5112799;28;20401;-66
2022/01/21 13:51:59;;;;;;;5.70;4.00;;;20.20;47.30;;;;;;5094929;28;20456;-66
2022/01/21 13:54:42;;;;;;;9.20;4.00;;;20.20;47.30;;;;;;5093925;28;20463;-66
2022/01/21 13:57:07;;;;;;;6.80;3.63;;;20.20;47.20;;;;;;5095029;28;20428;-65